Time;durP1;ratioP1;P1;durP2;ratioP2;P2;SDS_P1;SDS_P2;PMS_P1;PMS_P2;Temp;Humidity;BMP_temperature;BMP_pressure;BME280_temperature;BME280_humidity;BME280_pressure;Samples;Min_cycle;Max_cycle;Signal;HPM_P1;HPM_P2
2024/01/21 00:01:29;;;;;;;19.70;12.25;;;;;;;;;;4984035;28;20058;-67
2024/01/21 00:03:55;;;;;;;18.67;11.38;;;;;;;;;;4987571;28;20104;-67
2024/01/21 00:06:21;;;;;;;17.55;11.63;;;;;;;;;;4986921;28;20081;-66
2024/01/21 00:08:50;;;;;;;18.00;11.40;;;;;;;;;;4999153;28;20050;-67
2024/01/21 00:11:17;;;;;;;17.67;11.73;;;;;;;;;;4996222;28;20050;-67
2024/01/21 00:13:43;;;;;;;15.23;10.32;;;;;;;;;;4992506;28;20046;-67
2024/01/21 00:16:09;;;;;;;29.67;16.88;;;;;;;;;;4987381;28;20046;-66
2024/01/21 00:18:35;;;;;;;21.00;11.32;;;;;;;;;;4991749;28;20533;-66
2024/01/21 00:21:01;;;;;;;15.43;9.65;;;;;;;;;;4997697;28;20050;-66
2024/01/21 00:23:27;;;;;;;16.05;10.77;;;;;;;;;;4990450;28;20042;-66
2024/01/21 00:25:53;;;;;;;17.10;10.50;;;;;;;;;;4993123;28;20489;-66
2024/01/21 00:28:19;;;;;;;18.63;11.07;;;;;;;;;;4992048;28;20056;-66
2024/01/21 00:30:45;;;;;;;18.67;11.25;;;;;;;;;;4991261;28;20076;-67
2024/01/21 00:33:12;;;;;;;15.13;10.55;;;;;;;;;;4984199;28;20467;-66
2024/01/21 00:35:38;;;;;;;15.02;11.35;;;;;;;;;;4986398;28;20052;-66
2024/01/21 00:38:04;;;;;;;15.68;11.00;;;;;;;;;;4989008;28;20046;-66
2024/01/21 00:40:33;;;;;;;18.77;11.52;;;;;;;;;;4987817;28;20124;-67
2024/01/21 00:43:00;;;;;;;14.82;10.25;;;;;;;;;;4992109;28;20046;-66
2024/01/21 00:45:26;;;;;;;16.65;11.13;;;;;;;;;;4986127;28;20057;-66
2024/01/21 00:47:52;;;;;;;15.43;10.75;;;;;;;;;;4988696;28;20046;-66
2024/01/21 00:50:18;;;;;;;14.05;9.02;;;;;;;;;;4993068;28;20090;-66
2024/01/21 00:52:44;;;;;;;14.50;9.55;;;;;;;;;;4999817;28;20045;-66
2024/01/21 00:55:10;;;;;;;13.95;9.38;;;;;;;;;;5022640;28;20085;-67
2024/01/21 00:57:36;;;;;;;17.15;10.07;;;;;;;;;;4993688;28;20084;-66
2024/01/21 01:00:04;;;;;;;14.65;10.07;;;;;;;;;;4992576;28;20046;-66
2024/01/21 01:02:30;;;;;;;16.15;10.27;;;;;;;;;;4991129;28;20103;-67
2024/01/21 01:04:56;;;;;;;13.55;9.50;;;;;;;;;;5003380;28;20033;-66
2024/01/21 01:07:22;;;;;;;15.20;9.77;;;;;;;;;;4999012;28;20053;-67
2024/01/21 01:09:48;;;;;;;14.02;9.35;;;;;;;;;;4998916;28;20057;-66
2024/01/21 01:12:14;;;;;;;15.00;9.57;;;;;;;;;;5004803;28;20046;-66
2024/01/21 01:14:40;;;;;;;16.48;10.27;;;;;;;;;;5001286;28;20055;-66
2024/01/21 01:17:06;;;;;;;13.68;9.27;;;;;;;;;;4997318;28;20037;-66
2024/01/21 01:19:32;;;;;;;15.52;8.98;;;;;;;;;;4994399;28;20046;-66
2024/01/21 01:21:59;;;;;;;16.15;9.80;;;;;;;;;;4991935;28;20042;-66
2024/01/21 01:24:25;;;;;;;12.57;9.57;;;;;;;;;;4995352;28;20046;-66
2024/01/21 01:26:51;;;;;;;13.77;9.93;;;;;;;;;;4993130;28;20100;-66
2024/01/21 01:29:17;;;;;;;13.77;9.18;;;;;;;;;;4992132;28;20120;-66
2024/01/21 01:31:43;;;;;;;12.05;9.43;;;;;;;;;;5019213;28;20081;-66
2024/01/21 01:34:10;;;;;;;14.77;9.48;;;;;;;;;;4990530;28;20078;-67
2024/01/21 01:36:36;;;;;;;14.95;9.60;;;;;;;;;;4986244;28;20046;-66
2024/01/21 01:39:02;;;;;;;14.45;9.00;;;;;;;;;;4983617;28;20042;-67
2024/01/21 01:41:28;;;;;;;12.02;8.70;;;;;;;;;;4981935;28;20479;-66
2024/01/21 01:43:54;;;;;;;11.73;8.73;;;;;;;;;;4984517;28;20053;-66
2024/01/21 01:46:21;;;;;;;13.45;8.88;;;;;;;;;;4984389;28;20046;-66
2024/01/21 01:48:46;;;;;;;12.00;7.82;;;;;;;;;;5014851;28;20054;-66
2024/01/21 01:51:13;;;;;;;12.23;9.27;;;;;;;;;;4986575;28;20474;-67
2024/01/21 01:53:39;;;;;;;13.00;9.20;;;;;;;;;;4995008;28;20057;-66
2024/01/21 01:56:06;;;;;;;13.43;9.30;;;;;;;;;;4997015;28;20487;-66
2024/01/21 01:58:32;;;;;;;13.75;8.45;;;;;;;;;;4998109;28;20390;-66
2024/01/21 02:00:58;;;;;;;12.93;8.38;;;;;;;;;;4999476;28;20047;-66
2024/01/21 02:03:24;;;;;;;14.88;8.65;;;;;;;;;;5007040;28;20061;-66
2024/01/21 02:05:50;;;;;;;10.63;7.65;;;;;;;;;;4997575;28;20104;-66
2024/01/21 02:08:16;;;;;;;11.98;8.38;;;;;;;;;;4996095;28;20038;-67
2024/01/21 02:10:46;;;;;;;13.13;8.43;;;;;;;;;;4995069;28;20061;-66
2024/01/21 02:13:12;;;;;;;12.15;8.20;;;;;;;;;;4994922;28;20042;-66
2024/01/21 02:15:38;;;;;;;14.57;8.43;;;;;;;;;;4994724;28;20052;-66
2024/01/21 02:18:05;;;;;;;12.32;8.25;;;;;;;;;;4992420;28;20054;-66
2024/01/21 02:20:31;;;;;;;11.07;8.23;;;;;;;;;;4992833;28;20465;-67
2024/01/21 02:22:58;;;;;;;11.35;7.93;;;;;;;;;;4992695;28;20046;-66
2024/01/21 02:25:24;;;;;;;10.27;7.43;;;;;;;;;;4994845;28;20045;-66
2024/01/21 02:27:50;;;;;;;10.77;7.80;;;;;;;;;;4998533;28;20046;-66
2024/01/21 02:30:16;;;;;;;10.77;7.57;;;;;;;;;;4987003;28;20046;-67
2024/01/21 02:32:42;;;;;;;11.65;8.07;;;;;;;;;;4993139;28;20426;-66
2024/01/21 02:35:11;;;;;;;11.48;8.05;;;;;;;;;;4996513;28;20037;-66
2024/01/21 02:37:37;;;;;;;10.00;7.28;;;;;;;;;;4981968;28;20050;-66
2024/01/21 02:40:06;;;;;;;12.52;8.00;;;;;;;;;;4982271;28;20038;-66
2024/01/21 02:42:32;;;;;;;10.25;7.47;;;;;;;;;;4986141;28;20042;-67
2024/01/21 02:44:58;;;;;;;10.68;7.45;;;;;;;;;;4984778;28;20399;-66
2024/01/21 02:47:24;;;;;;;12.20;7.13;;;;;;;;;;5012190;28;20043;-66
2024/01/21 02:49:51;;;;;;;11.48;7.63;;;;;;;;;;4981783;28;20051;-66
2024/01/21 02:52:17;;;;;;;9.45;6.72;;;;;;;;;;4985258;28;20132;-66
2024/01/21 02:54:43;;;;;;;11.43;7.38;;;;;;;;;;4988173;28;20478;-66
2024/01/21 02:57:09;;;;;;;12.45;8.18;;;;;;;;;;5017691;28;20053;-66
2024/01/21 02:59:35;;;;;;;10.38;7.00;;;;;;;;;;4997517;28;20037;-66
2024/01/21 03:02:01;;;;;;;11.50;7.40;;;;;;;;;;4992300;28;20042;-66
2024/01/21 03:04:27;;;;;;;8.90;6.15;;;;;;;;;;4991699;28;20057;-66
2024/01/21 03:06:53;;;;;;;9.38;6.88;;;;;;;;;;4998953;28;20483;-66
2024/01/21 03:09:19;;;;;;;10.65;7.28;;;;;;;;;;5018357;28;20062;-66
2024/01/21 03:11:45;;;;;;;10.02;6.65;;;;;;;;;;4997099;28;20061;-66
2024/01/21 03:14:14;;;;;;;8.68;5.85;;;;;;;;;;5001909;28;20045;-66
2024/01/21 03:16:40;;;;;;;9.60;7.13;;;;;;;;;;4994087;28;20523;-66
2024/01/21 03:19:06;;;;;;;8.25;6.00;;;;;;;;;;4994941;28;20144;-66
2024/01/21 03:21:32;;;;;;;8.73;6.45;;;;;;;;;;5003756;28;20054;-66
2024/01/21 03:23:58;;;;;;;9.98;5.65;;;;;;;;;;4998932;28;20513;-66
2024/01/21 03:26:24;;;;;;;8.82;5.85;;;;;;;;;;4999495;28;20057;-66
2024/01/21 03:28:50;;;;;;;10.10;6.65;;;;;;;;;;4994433;28;20053;-66
2024/01/21 03:31:18;;;;;;;8.10;5.97;;;;;;;;;;4993717;28;20079;-66
2024/01/21 03:33:44;;;;;;;9.18;6.32;;;;;;;;;;4998788;28;20041;-66
2024/01/21 03:36:11;;;;;;;8.60;5.60;;;;;;;;;;4994505;28;20065;-66
2024/01/21 03:38:39;;;;;;;12.90;7.20;;;;;;;;;;4983620;28;20100;-66
2024/01/21 03:41:05;;;;;;;8.68;5.90;;;;;;;;;;4981386;28;20062;-66
2024/01/21 03:43:31;;;;;;;9.00;5.68;;;;;;;;;;5001280;28;20068;-66
2024/01/21 03:45:57;;;;;;;9.43;5.80;;;;;;;;;;5023590;28;20121;-66
2024/01/21 03:48:23;;;;;;;8.35;6.18;;;;;;;;;;4987005;28;20510;-67
2024/01/21 03:50:50;;;;;;;10.93;6.03;;;;;;;;;;4993448;28;21717;-66
2024/01/21 03:53:16;;;;;;;8.77;4.88;;;;;;;;;;4991045;28;20486;-66
2024/01/21 03:55:42;;;;;;;9.70;6.32;;;;;;;;;;4995994;28;20038;-66
2024/01/21 03:58:08;;;;;;;10.20;6.07;;;;;;;;;;4986428;28;20042;-66
2024/01/21 04:00:34;;;;;;;8.43;6.00;;;;;;;;;;4985986;28;20379;-66
2024/01/21 04:03:02;;;;;;;7.90;5.68;;;;;;;;;;4982330;28;20094;-66
2024/01/21 04:05:28;;;;;;;8.55;5.85;;;;;;;;;;5013342;28;20506;-66
2024/01/21 04:07:54;;;;;;;8.90;6.22;;;;;;;;;;4979434;28;20042;-66
2024/01/21 04:10:21;;;;;;;8.65;6.20;;;;;;;;;;5012226;28;20136;-66
2024/01/21 04:12:47;;;;;;;9.02;5.95;;;;;;;;;;4988715;28;20046;-66
2024/01/21 04:15:18;;;;;;;10.00;6.10;;;;;;;;;;4988599;28;20050;-66
2024/01/21 04:17:44;;;;;;;9.85;6.32;;;;;;;;;;5014503;28;20108;-66
2024/01/21 04:20:10;;;;;;;12.90;5.97;;;;;;;;;;4983020;28;22359;-66
2024/01/21 04:22:37;;;;;;;10.02;6.38;;;;;;;;;;4982861;28;20049;-66
2024/01/21 04:25:03;;;;;;;8.05;5.68;;;;;;;;;;4984697;28;20042;-66
2024/01/21 04:27:29;;;;;;;8.05;5.97;;;;;;;;;;4996485;28;20435;-66
2024/01/21 04:29:55;;;;;;;7.82;6.18;;;;;;;;;;4986943;28;20034;-66
2024/01/21 04:32:21;;;;;;;8.88;6.07;;;;;;;;;;4985060;28;20133;-66
2024/01/21 04:34:47;;;;;;;8.07;6.20;;;;;;;;;;4988958;28;20050;-66
2024/01/21 04:37:13;;;;;;;10.18;5.93;;;;;;;;;;4993297;28;20073;-66
2024/01/21 04:39:39;;;;;;;8.30;6.20;;;;;;;;;;4977909;28;20046;-66
2024/01/21 04:42:05;;;;;;;9.05;5.72;;;;;;;;;;5016005;28;20133;-66
2024/01/21 04:44:31;;;;;;;8.57;5.93;;;;;;;;;;4982568;28;20117;-66
2024/01/21 04:46:57;;;;;;;11.45;6.70;;;;;;;;;;4980964;28;20042;-66
2024/01/21 04:49:23;;;;;;;8.60;6.03;;;;;;;;;;5013173;28;20125;-66
2024/01/21 04:51:49;;;;;;;10.15;6.40;;;;;;;;;;5011517;28;20584;-66
2024/01/21 04:54:15;;;;;;;11.60;5.90;;;;;;;;;;4989122;28;20065;-66
2024/01/21 04:56:41;;;;;;;8.70;5.53;;;;;;;;;;4986824;28;20471;-66
2024/01/21 04:59:09;;;;;;;9.57;6.15;;;;;;;;;;4985800;28;20043;-66
2024/01/21 05:01:35;;;;;;;9.57;5.75;;;;;;;;;;4988880;28;20051;-66
2024/01/21 05:04:01;;;;;;;9.57;6.15;;;;;;;;;;5012678;28;20109;-66
2024/01/21 05:06:27;;;;;;;8.35;5.80;;;;;;;;;;5002258;28;20049;-66
2024/01/21 05:08:54;;;;;;;8.18;5.78;;;;;;;;;;4992158;28;20494;-66
2024/01/21 05:11:20;;;;;;;9.80;6.13;;;;;;;;;;4997492;28;20309;-66
2024/01/21 05:13:46;;;;;;;9.70;5.80;;;;;;;;;;5003879;28;20050;-66
2024/01/21 05:16:13;;;;;;;8.25;5.35;;;;;;;;;;4998115;28;20078;-66
2024/01/21 05:18:39;;;;;;;9.65;5.78;;;;;;;;;;4998017;28;20054;-67
2024/01/21 05:21:05;;;;;;;8.77;5.25;;;;;;;;;;5022036;28;20049;-65
2024/01/21 05:23:32;;;;;;;8.82;5.88;;;;;;;;;;4999598;28;20054;-66
2024/01/21 05:25:58;;;;;;;11.02;6.20;;;;;;;;;;5001723;28;20057;-66
2024/01/21 05:28:24;;;;;;;8.77;6.13;;;;;;;;;;4999014;28;20077;-66
2024/01/21 05:30:50;;;;;;;9.85;5.47;;;;;;;;;;4993613;28;20057;-66
2024/01/21 05:33:16;;;;;;;10.27;5.60;;;;;;;;;;4999646;28;20585;-66
2024/01/21 05:35:42;;;;;;;6.93;4.85;;;;;;;;;;4994960;28;20042;-66
2024/01/21 05:38:08;;;;;;;8.88;5.20;;;;;;;;;;4985709;28;20050;-66
2024/01/21 05:40:35;;;;;;;9.25;6.35;;;;;;;;;;4992350;28;20085;-66
2024/01/21 05:43:01;;;;;;;10.43;6.22;;;;;;;;;;4996661;28;20592;-66
2024/01/21 05:45:28;;;;;;;14.27;6.75;;;;;;;;;;4991446;28;20120;-66
2024/01/21 05:48:03;;;;;;;10.77;6.03;;;;;;;;;;4981582;28;20449;-66
2024/01/21 05:50:29;;;;;;;12.85;6.50;;;;;;;;;;4992401;28;20051;-66
2024/01/21 05:52:55;;;;;;;8.40;5.78;;;;;;;;;;4987650;28;20038;-66
2024/01/21 05:55:21;;;;;;;8.27;5.80;;;;;;;;;;4991562;28;20057;-66
2024/01/21 05:57:47;;;;;;;11.13;6.93;;;;;;;;;;5016108;28;20042;-66
2024/01/21 06:00:13;;;;;;;10.25;6.63;;;;;;;;;;5020351;28;20077;-66
2024/01/21 06:02:39;;;;;;;9.02;5.75;;;;;;;;;;4994326;28;20046;-66
2024/01/21 06:05:05;;;;;;;10.60;5.80;;;;;;;;;;4990631;28;20080;-66
2024/01/21 06:07:31;;;;;;;10.00;6.35;;;;;;;;;;5017999;28;20050;-66
2024/01/21 06:09:57;;;;;;;10.98;7.10;;;;;;;;;;4997544;28;20058;-66
2024/01/21 06:12:23;;;;;;;12.25;6.72;;;;;;;;;;4990130;28;20049;-66
2024/01/21 06:14:49;;;;;;;10.70;6.00;;;;;;;;;;5019474;28;20509;-66
2024/01/21 06:17:15;;;;;;;10.32;5.90;;;;;;;;;;4991150;28;20067;-66
2024/01/21 06:19:41;;;;;;;12.63;7.32;;;;;;;;;;4992433;28;20561;-66
2024/01/21 06:22:07;;;;;;;13.20;7.47;;;;;;;;;;5015965;28;20436;-66
2024/01/21 06:24:37;;;;;;;10.15;6.03;;;;;;;;;;5011294;28;20093;-66
2024/01/21 06:27:04;;;;;;;10.32;6.10;;;;;;;;;;4985612;28;20141;-66
2024/01/21 06:29:33;;;;;;;13.10;6.88;;;;;;;;;;4989004;28;20050;-66
2024/01/21 06:31:59;;;;;;;10.80;6.85;;;;;;;;;;4986624;28;20130;-66
2024/01/21 06:34:25;;;;;;;10.30;6.38;;;;;;;;;;4987803;28;20056;-66
2024/01/21 06:36:51;;;;;;;10.45;6.40;;;;;;;;;;4984151;28;20050;-66
2024/01/21 06:39:17;;;;;;;12.73;7.25;;;;;;;;;;4985395;28;20069;-66
2024/01/21 06:41:49;;;;;;;11.50;6.90;;;;;;;;;;4989876;28;20137;-67
2024/01/21 06:44:15;;;;;;;12.27;6.85;;;;;;;;;;4993201;28;20397;-66
2024/01/21 06:46:41;;;;;;;10.70;6.45;;;;;;;;;;4988390;28;20053;-66
2024/01/21 06:49:07;;;;;;;13.93;7.75;;;;;;;;;;5017542;28;20426;-66
2024/01/21 06:51:43;;;;;;;11.60;7.10;;;;;;;;;;4985223;28;20093;-66
2024/01/21 06:54:10;;;;;;;10.60;6.97;;;;;;;;;;4985038;28;20042;-66
2024/01/21 06:56:43;;;;;;;20.63;7.72;;;;;;;;;;5012638;28;20082;-66
2024/01/21 06:59:09;;;;;;;12.98;7.53;;;;;;;;;;4984744;28;20096;-66
2024/01/21 07:01:35;;;;;;;13.85;7.05;;;;;;;;;;4985526;28;20042;-66
2024/01/21 07:04:01;;;;;;;10.32;6.88;;;;;;;;;;4985572;28;20403;-66
2024/01/21 07:06:27;;;;;;;9.98;6.15;;;;;;;;;;5001578;28;20129;-66
2024/01/21 07:08:53;;;;;;;11.50;7.38;;;;;;;;;;4996061;28;20164;-66
2024/01/21 07:11:19;;;;;;;10.93;7.03;;;;;;;;;;4992574;28;20503;-66
2024/01/21 07:13:45;;;;;;;14.45;7.35;;;;;;;;;;4998967;28;20140;-66
2024/01/21 07:16:11;;;;;;;10.88;7.03;;;;;;;;;;5000225;28;20068;-66
2024/01/21 07:18:37;;;;;;;11.90;6.93;;;;;;;;;;5004382;28;20038;-66
2024/01/21 07:21:03;;;;;;;13.73;7.47;;;;;;;;;;4995012;28;20489;-66
2024/01/21 07:23:29;;;;;;;9.90;6.40;;;;;;;;;;4995613;28;20120;-66
2024/01/21 07:25:56;;;;;;;12.27;7.88;;;;;;;;;;4990640;28;20479;-67
2024/01/21 07:28:22;;;;;;;10.98;6.85;;;;;;;;;;4994727;28;20048;-66
2024/01/21 07:30:48;;;;;;;10.25;6.93;;;;;;;;;;4993127;28;20133;-66
2024/01/21 07:33:14;;;;;;;12.52;7.55;;;;;;;;;;4995194;28;20138;-68
2024/01/21 07:35:40;;;;;;;12.88;8.10;;;;;;;;;;4988559;28;20140;-68
2024/01/21 07:38:07;;;;;;;13.30;7.22;;;;;;;;;;4990616;28;20050;-67
2024/01/21 07:40:33;;;;;;;11.23;7.90;;;;;;;;;;4984329;28;20065;-66
2024/01/21 07:42:59;;;;;;;12.55;8.88;;;;;;;;;;5019208;28;20056;-66
2024/01/21 07:45:25;;;;;;;9.25;6.70;;;;;;;;;;4990807;28;20081;-66
2024/01/21 07:47:51;;;;;;;12.65;8.13;;;;;;;;;;5015926;28;20054;-66
2024/01/21 07:50:20;;;;;;;12.85;7.65;;;;;;;;;;4989958;28;20508;-66
2024/01/21 07:52:46;;;;;;;12.95;8.05;;;;;;;;;;4989134;28;20046;-66
2024/01/21 07:55:13;;;;;;;11.35;7.93;;;;;;;;;;4992374;28;20057;-66
2024/01/21 07:57:39;;;;;;;11.27;7.65;;;;;;;;;;4995528;28;20061;-66
2024/01/21 08:00:08;;;;;;;13.45;9.00;;;;;;;;;;4986709;28;20482;-66
2024/01/21 08:02:34;;;;;;;14.45;9.10;;;;;;;;;;5016110;28;20112;-66
2024/01/21 08:05:01;;;;;;;11.15;6.55;;;;;;;;;;4993974;28;20061;-67
2024/01/21 08:07:28;;;;;;;12.20;8.07;;;;;;;;;;4986973;28;20050;-66
2024/01/21 08:09:54;;;;;;;11.65;7.70;;;;;;;;;;5016836;28;20066;-66
2024/01/21 08:12:20;;;;;;;12.65;8.80;;;;;;;;;;4988607;28;20077;-66
2024/01/21 08:14:46;;;;;;;15.95;8.88;;;;;;;;;;4990940;28;20042;-66
2024/01/21 08:17:13;;;;;;;13.77;8.13;;;;;;;;;;4989716;28;20049;-66
2024/01/21 08:19:39;;;;;;;11.88;8.35;;;;;;;;;;4989850;28;20706;-66
2024/01/21 08:22:05;;;;;;;16.35;9.45;;;;;;;;;;4993722;28;20168;-66
2024/01/21 08:24:31;;;;;;;11.75;8.55;;;;;;;;;;5012815;28;20129;-66
2024/01/21 08:27:00;;;;;;;14.60;8.00;;;;;;;;;;4986482;28;20121;-66
2024/01/21 08:29:27;;;;;;;15.88;8.95;;;;;;;;;;4982854;28;20046;-67
2024/01/21 08:31:56;;;;;;;11.18;7.85;;;;;;;;;;5018257;28;20973;-66
2024/01/21 08:34:22;;;;;;;14.15;8.35;;;;;;;;;;4992908;28;20087;-66
2024/01/21 08:36:48;;;;;;;10.35;7.80;;;;;;;;;;4991025;28;20038;-66
2024/01/21 08:39:14;;;;;;;12.75;8.50;;;;;;;;;;4990424;28;20384;-66
2024/01/21 08:41:43;;;;;;;15.00;8.70;;;;;;;;;;4990654;28;20054;-66
2024/01/21 08:44:09;;;;;;;11.75;8.38;;;;;;;;;;4985908;28;20861;-66
2024/01/21 08:46:35;;;;;;;14.85;7.85;;;;;;;;;;4987780;28;20065;-66
2024/01/21 08:49:02;;;;;;;13.18;8.43;;;;;;;;;;5017677;28;20050;-66
2024/01/21 08:51:29;;;;;;;12.00;8.23;;;;;;;;;;4986603;28;20189;-66
2024/01/21 08:53:58;;;;;;;13.05;8.65;;;;;;;;;;4990524;28;20054;-66
2024/01/21 08:56:25;;;;;;;12.63;8.88;;;;;;;;;;4988250;28;20046;-66
2024/01/21 08:58:51;;;;;;;11.50;6.90;;;;;;;;;;4987056;28;20054;-66
2024/01/21 09:01:18;;;;;;;18.50;9.80;;;;;;;;;;4984291;28;20073;-66
2024/01/21 09:03:44;;;;;;;12.88;8.65;;;;;;;;;;4992385;28;20046;-66
2024/01/21 09:06:10;;;;;;;13.65;9.35;;;;;;;;;;5002733;28;20045;-66
2024/01/21 09:08:36;;;;;;;13.13;8.60;;;;;;;;;;4997063;28;20045;-66
2024/01/21 09:11:02;;;;;;;11.65;8.07;;;;;;;;;;5004323;28;20088;-66
2024/01/21 09:13:28;;;;;;;13.82;8.60;;;;;;;;;;4978556;28;20764;-66
2024/01/21 09:15:54;;;;;;;14.02;8.68;;;;;;;;;;4982796;28;20076;-66
2024/01/21 09:18:20;;;;;;;12.65;9.38;;;;;;;;;;4978331;28;20510;-66
2024/01/21 09:20:46;;;;;;;11.63;7.47;;;;;;;;;;4977868;28;20051;-66
2024/01/21 09:23:12;;;;;;;11.77;7.47;;;;;;;;;;4983930;28;20083;-66
2024/01/21 09:25:38;;;;;;;13.73;9.20;;;;;;;;;;4971093;28;20125;-67
2024/01/21 09:28:05;;;;;;;13.88;8.60;;;;;;;;;;5006305;28;20054;-67
2024/01/21 09:30:31;;;;;;;13.05;9.85;;;;;;;;;;4969477;28;20070;-66
2024/01/21 09:32:57;;;;;;;13.13;9.55;;;;;;;;;;4967435;28;20112;-66
2024/01/21 09:35:29;;;;;;;16.98;9.50;;;;;;;;;;4973021;28;20073;-65
2024/01/21 09:37:55;;;;;;;13.13;8.75;;;;;;;;;;4968220;28;20049;-65
2024/01/21 09:40:21;;;;;;;14.80;10.35;;;;;;;;;;4976299;28;20132;-66
2024/01/21 09:42:50;;;;;;;13.07;9.00;;;;;;;;;;4970446;28;20034;-67
2024/01/21 09:45:17;;;;;;;14.68;8.77;;;;;;;;;;4968044;28;20043;-67
2024/01/21 09:47:43;;;;;;;16.83;9.73;;;;;;;;;;4962783;28;20043;-69
2024/01/21 09:50:10;;;;;;;12.77;9.20;;;;;;;;;;4974630;28;20053;-67
2024/01/21 09:52:36;;;;;;;15.43;9.68;;;;;;;;;;4970499;28;20042;-66
2024/01/21 09:55:02;;;;;;;19.63;8.88;;;;;;;;;;5006044;28;20075;-66
2024/01/21 09:57:28;;;;;;;13.75;9.30;;;;;;;;;;4966569;28;20035;-65
2024/01/21 09:59:55;;;;;;;11.65;9.13;;;;;;;;;;4976477;28;20184;-65
2024/01/21 10:02:22;;;;;;;13.75;8.77;;;;;;;;;;5006969;28;20085;-73
2024/01/21 10:04:49;;;;;;;12.40;9.23;;;;;;;;;;4967478;28;20493;-66
2024/01/21 10:07:15;;;;;;;17.27;10.57;;;;;;;;;;4968677;28;20034;-67
2024/01/21 10:09:41;;;;;;;15.93;10.10;;;;;;;;;;4976896;28;20050;-66
2024/01/21 10:12:10;;;;;;;17.80;9.77;;;;;;;;;;4986603;28;20054;-66
2024/01/21 10:14:37;;;;;;;15.02;9.60;;;;;;;;;;4987990;28;21241;-66
2024/01/21 10:17:03;;;;;;;16.20;10.02;;;;;;;;;;4987254;28;20046;-67
2024/01/21 10:19:31;;;;;;;14.75;10.07;;;;;;;;;;4989952;28;20430;-68
2024/01/21 10:22:16;;;;;;;12.27;8.93;;;;;;;;;;4985403;28;20526;-67
2024/01/21 10:24:46;;;;;;;15.73;9.45;;;;;;;;;;4986284;28;20054;-67
2024/01/21 10:27:13;;;;;;;17.25;9.80;;;;;;;;;;4984030;28;20061;-66
2024/01/21 10:29:45;;;;;;;14.43;10.73;;;;;;;;;;4990507;28;20368;-66
2024/01/21 10:32:12;;;;;;;19.42;11.63;;;;;;;;;;4989541;28;20046;-66
2024/01/21 10:34:42;;;;;;;13.60;9.68;;;;;;;;;;4987405;28;20042;-67
2024/01/21 10:37:08;;;;;;;16.38;9.07;;;;;;;;;;5015989;28;20057;-67
2024/01/21 10:39:37;;;;;;;17.65;11.18;;;;;;;;;;5013865;28;20046;-67
2024/01/21 10:42:05;;;;;;;17.05;10.57;;;;;;;;;;4983621;28;20065;-67
2024/01/21 10:44:31;;;;;;;14.80;10.68;;;;;;;;;;5014887;28;20125;-67
2024/01/21 10:46:57;;;;;;;16.73;10.45;;;;;;;;;;5017265;28;20046;-67
2024/01/21 10:49:23;;;;;;;17.30;10.13;;;;;;;;;;4986836;28;20117;-67
2024/01/21 10:51:52;;;;;;;16.00;9.88;;;;;;;;;;4986210;28;20057;-66
2024/01/21 10:54:22;;;;;;;15.82;10.88;;;;;;;;;;5016879;28;20038;-67
2024/01/21 10:56:48;;;;;;;16.77;10.00;;;;;;;;;;5001116;28;20801;-66
2024/01/21 10:59:15;;;;;;;16.65;10.75;;;;;;;;;;5013897;28;20060;-67
2024/01/21 11:01:42;;;;;;;16.35;11.38;;;;;;;;;;4984197;28;20057;-66
2024/01/21 11:04:11;;;;;;;14.05;10.70;;;;;;;;;;5016019;28;20074;-67
2024/01/21 11:06:41;;;;;;;18.15;11.25;;;;;;;;;;4987537;28;20046;-66
2024/01/21 11:09:08;;;;;;;17.60;10.23;;;;;;;;;;4987462;28;20445;-67
2024/01/21 11:11:41;;;;;;;14.43;10.95;;;;;;;;;;4989873;28;20053;-67
2024/01/21 11:14:27;;;;;;;19.02;12.55;;;;;;;;;;4987165;28;20058;-67
2024/01/21 11:16:57;;;;;;;17.90;12.10;;;;;;;;;;4988945;28;20081;-67
2024/01/21 11:19:24;;;;;;;17.98;12.13;;;;;;;;;;4986885;28;20390;-67
2024/01/21 11:21:54;;;;;;;19.85;11.13;;;;;;;;;;4996844;28;20129;-67
2024/01/21 11:24:20;;;;;;;17.63;12.00;;;;;;;;;;4986749;28;20046;-66
2024/01/21 11:26:47;;;;;;;18.63;12.05;;;;;;;;;;4988549;28;20049;-67
2024/01/21 11:29:27;;;;;;;16.23;10.65;;;;;;;;;;4988540;28;20078;-67
2024/01/21 11:31:56;;;;;;;14.27;9.88;;;;;;;;;;4982530;28;20046;-67
2024/01/21 11:34:22;;;;;;;16.83;10.60;;;;;;;;;;4977675;28;20387;-67
2024/01/21 11:36:48;;;;;;;16.13;11.18;;;;;;;;;;5013761;28;20608;-67
2024/01/21 11:39:15;;;;;;;16.50;11.98;;;;;;;;;;4978267;28;20065;-67
2024/01/21 11:41:44;;;;;;;15.48;9.48;;;;;;;;;;4977472;28;20050;-67
2024/01/21 11:44:19;;;;;;;14.93;10.98;;;;;;;;;;4978196;28;20065;-67
2024/01/21 11:46:46;;;;;;;20.75;12.15;;;;;;;;;;4979233;28;20121;-67
2024/01/21 11:49:12;;;;;;;17.20;11.57;;;;;;;;;;5011891;28;20035;-67
2024/01/21 11:51:38;;;;;;;15.52;11.25;;;;;;;;;;4984835;28;20099;-67
2024/01/21 11:54:05;;;;;;;15.00;9.85;;;;;;;;;;5011456;28;20054;-67
2024/01/21 11:56:31;;;;;;;19.95;13.10;;;;;;;;;;4983075;28;20058;-67
2024/01/21 11:58:57;;;;;;;20.77;13.52;;;;;;;;;;4980908;28;22316;-67
2024/01/21 12:01:24;;;;;;;17.85;10.93;;;;;;;;;;4982468;28;20049;-67
2024/01/21 12:03:50;;;;;;;20.67;12.15;;;;;;;;;;4983429;28;20054;-67
2024/01/21 12:06:17;;;;;;;20.90;11.10;;;;;;;;;;4983811;28;20042;-67
2024/01/21 12:08:44;;;;;;;19.55;13.35;;;;;;;;;;4981824;28;20057;-67
2024/01/21 12:11:11;;;;;;;20.15;12.73;;;;;;;;;;5016932;28;20596;-67
2024/01/21 12:13:39;;;;;;;19.45;12.35;;;;;;;;;;4987126;28;20046;-67
2024/01/21 12:16:07;;;;;;;20.60;11.93;;;;;;;;;;4984789;28;20050;-67
2024/01/21 12:18:36;;;;;;;28.05;13.77;;;;;;;;;;4990035;28;20058;-67
2024/01/21 12:21:02;;;;;;;22.25;13.00;;;;;;;;;;4986502;28;20043;-67
2024/01/21 12:23:28;;;;;;;21.17;13.73;;;;;;;;;;4982986;28;20644;-67
2024/01/21 12:25:55;;;;;;;25.27;14.82;;;;;;;;;;4993018;28;20375;-68
2024/01/21 12:28:24;;;;;;;21.00;14.27;;;;;;;;;;4992517;28;20042;-66
2024/01/21 12:30:50;;;;;;;22.88;13.07;;;;;;;;;;4991041;28;20048;-67
2024/01/21 12:33:16;;;;;;;20.42;13.40;;;;;;;;;;4989383;28;20422;-67
2024/01/21 12:35:43;;;;;;;21.90;12.98;;;;;;;;;;5023808;28;20050;-67
2024/01/21 12:38:09;;;;;;;20.80;14.20;;;;;;;;;;4990603;28;20050;-67
2024/01/21 12:40:35;;;;;;;19.33;12.73;;;;;;;;;;4986675;28;20509;-67
2024/01/21 12:43:04;;;;;;;20.73;14.75;;;;;;;;;;5023910;28;20042;-67
2024/01/21 12:45:30;;;;;;;17.70;11.73;;;;;;;;;;4993289;28;20061;-67
2024/01/21 12:47:56;;;;;;;26.52;17.13;;;;;;;;;;4993640;28;20038;-67
2024/01/21 12:50:23;;;;;;;24.88;15.27;;;;;;;;;;4990338;28;20077;-68
2024/01/21 12:52:50;;;;;;;21.58;14.55;;;;;;;;;;4991299;28;20054;-67
2024/01/21 12:55:16;;;;;;;21.85;13.55;;;;;;;;;;4992600;28;20090;-66
2024/01/21 12:57:42;;;;;;;23.05;14.60;;;;;;;;;;4986638;28;20612;-66
2024/01/21 13:00:08;;;;;;;20.73;14.63;;;;;;;;;;4984834;28;20046;-67
2024/01/21 13:02:35;;;;;;;24.70;15.02;;;;;;;;;;4994918;28;20050;-66
2024/01/21 13:05:04;;;;;;;25.00;15.75;;;;;;;;;;4998870;28;20430;-66
2024/01/21 13:07:31;;;;;;;22.05;14.10;;;;;;;;;;5015003;28;20058;-65
2024/01/21 13:09:57;;;;;;;20.20;14.35;;;;;;;;;;5002660;28;20058;-66
2024/01/21 13:12:23;;;;;;;22.30;15.60;;;;;;;;;;4993904;28;20500;-65
2024/01/21 13:14:49;;;;;;;20.27;14.43;;;;;;;;;;4987065;28;20046;-66
2024/01/21 13:17:16;;;;;;;20.52;14.68;;;;;;;;;;4995287;28;20058;-66
2024/01/21 13:19:42;;;;;;;21.52;14.77;;;;;;;;;;4998116;28;20042;-67
2024/01/21 13:22:09;;;;;;;17.17;12.60;;;;;;;;;;4994493;28;20041;-67
2024/01/21 13:24:37;;;;;;;20.55;14.63;;;;;;;;;;4980594;28;20074;-67
2024/01/21 13:27:16;;;;;;;22.70;13.88;;;;;;;;;;4986542;28;20045;-66
2024/01/21 13:32:27;;;;;;;25.27;15.63;;;;;;;;;;4980948;28;20046;-67
2024/01/21 13:34:54;;;;;;;20.90;13.05;;;;;;;;;;4981987;28;20455;-67
2024/01/21 13:37:20;;;;;;;21.58;14.45;;;;;;;;;;4994704;28;20479;-67
2024/01/21 13:39:46;;;;;;;31.20;15.23;;;;;;;;;;4986953;28;20425;-67
2024/01/21 13:42:12;;;;;;;19.80;13.32;;;;;;;;;;4984773;28;20042;-67
2024/01/21 13:44:38;;;;;;;21.05;14.05;;;;;;;;;;4974509;28;20050;-66
2024/01/21 13:47:04;;;;;;;23.65;14.00;;;;;;;;;;4990596;28;20117;-66
2024/01/21 13:49:30;;;;;;;21.38;13.80;;;;;;;;;;5024251;28;20734;-66
2024/01/21 13:51:57;;;;;;;20.88;14.05;;;;;;;;;;4992778;28;20046;-66
2024/01/21 13:54:23;;;;;;;18.92;14.25;;;;;;;;;;5000943;28;20475;-67
2024/01/21 13:56:49;;;;;;;23.17;14.68;;;;;;;;;;4998363;28;20753;-67
2024/01/21 13:59:15;;;;;;;22.38;14.35;;;;;;;;;;4976888;28;20073;-66
2024/01/21 14:01:41;;;;;;;19.73;12.70;;;;;;;;;;5013916;28;20061;-67
2024/01/21 14:04:07;;;;;;;20.05;13.00;;;;;;;;;;4994419;28;20042;-67
2024/01/21 14:06:33;;;;;;;21.25;13.68;;;;;;;;;;4987092;28;20053;-67
2024/01/21 14:08:59;;;;;;;23.92;13.27;;;;;;;;;;4988090;28;20509;-67
2024/01/21 14:11:25;;;;;;;23.13;11.63;;;;;;;;;;4996172;28;20065;-66
2024/01/21 14:13:51;;;;;;;24.52;14.35;;;;;;;;;;4989683;28;20046;-67
2024/01/21 14:16:18;;;;;;;19.75;11.77;;;;;;;;;;4984088;28;20038;-67
2024/01/21 14:18:46;;;;;;;22.67;12.73;;;;;;;;;;4991588;28;20095;-67
2024/01/21 14:21:13;;;;;;;21.48;14.02;;;;;;;;;;5002625;28;20050;-67
2024/01/21 14:23:39;;;;;;;23.48;14.35;;;;;;;;;;4982444;28;20042;-66
2024/01/21 14:26:09;;;;;;;19.58;12.15;;;;;;;;;;5028441;28;20061;-67
2024/01/21 14:28:38;;;;;;;20.67;13.45;;;;;;;;;;4976026;28;20053;-68